createdAt,value
2018-12-18T00:00:03.269Z,2.5
2018-12-18T00:01:02.610Z,2.43
2018-12-18T00:02:02.927Z,2.37
2018-12-18T00:03:03.246Z,2.43
2018-12-18T00:04:02.596Z,2.5
2018-12-18T00:05:02.917Z,2.37
2018-12-18T00:06:03.229Z,2.5
2018-12-18T00:07:02.507Z,2.37
2018-12-18T00:08:02.766Z,2.56
2018-12-18T00:09:03.096Z,2.5
2018-12-18T00:10:02.329Z,2.56
2018-12-18T00:11:02.643Z,2.62
2018-12-18T00:12:02.930Z,2.43
2018-12-18T00:13:03.230Z,2.5
2018-12-18T00:14:02.567Z,2.37
2018-12-18T00:15:02.922Z,2.43
2018-12-18T00:16:04.122Z,2.5
2018-12-18T00:17:02.433Z,2.43
2018-12-18T00:18:02.764Z,2.43
2018-12-18T00:19:03.070Z,2.37
2018-12-18T00:20:02.365Z,2.5
2018-12-18T00:21:02.767Z,2.5
2018-12-18T00:22:03.072Z,2.5
2018-12-18T00:23:02.367Z,2.56
2018-12-18T00:24:02.686Z,2.62
2018-12-18T00:25:02.998Z,2.56
2018-12-18T00:26:02.328Z,2.56
2018-12-18T00:27:02.841Z,2.56
2018-12-18T00:28:03.146Z,2.62
2018-12-18T00:29:02.426Z,2.62
2018-12-18T00:30:02.750Z,2.56
2018-12-18T00:31:03.085Z,2.56
2018-12-18T00:32:02.368Z,2.43
2018-12-18T00:33:02.729Z,2.62
2018-12-18T00:34:02.999Z,2.56
2018-12-18T00:35:02.284Z,2.56
2018-12-18T00:36:02.590Z,2.5
2018-12-18T00:37:02.917Z,2.5
2018-12-18T00:38:03.288Z,2.56
2018-12-18T00:39:02.585Z,2.5
2018-12-18T00:40:02.835Z,2.62
2018-12-18T00:41:03.156Z,2.62
2018-12-18T00:42:02.427Z,2.62
2018-12-18T00:43:02.737Z,2.62
2018-12-18T00:44:03.051Z,2.62
2018-12-18T00:45:02.346Z,2.56
2018-12-18T00:46:02.589Z,2.56
2018-12-18T00:47:02.839Z,2.5
2018-12-18T00:48:03.157Z,2.56
2018-12-18T00:49:02.440Z,2.5
2018-12-18T00:50:02.810Z,2.56
2018-12-18T00:51:03.080Z,2.62
2018-12-18T00:52:02.353Z,2.68
2018-12-18T00:53:02.684Z,2.62
2018-12-18T00:54:03.023Z,2.56
2018-12-18T00:55:02.338Z,2.62
2018-12-18T00:56:02.667Z,2.62
2018-12-18T00:57:02.992Z,2.68
2018-12-18T00:58:02.288Z,2.62
2018-12-18T00:59:02.710Z,2.62
2018-12-18T01:00:02.982Z,2.56
2018-12-18T01:01:02.273Z,2.62
2018-12-18T01:02:02.707Z,2.62
2018-12-18T01:03:02.989Z,2.5
2018-12-18T01:04:02.276Z,2.5
2018-12-18T01:05:02.601Z,2.68
2018-12-18T01:06:02.931Z,2.62
2018-12-18T01:07:03.334Z,2.62
2018-12-18T01:08:02.601Z,2.56
2018-12-18T01:09:02.925Z,2.62
2018-12-18T01:10:03.233Z,2.5
2018-12-18T01:11:02.522Z,2.5
2018-12-18T01:12:02.888Z,2.5
2018-12-18T01:13:03.208Z,2.5
2018-12-18T01:14:02.594Z,2.56
2018-12-18T01:15:02.922Z,2.56
2018-12-18T01:16:03.239Z,2.62
2018-12-18T01:17:02.524Z,2.68
2018-12-18T01:18:02.890Z,2.62
2018-12-18T01:19:03.203Z,2.62
2018-12-18T01:20:02.525Z,2.56
2018-12-18T01:21:02.858Z,2.62
2018-12-18T01:22:03.150Z,2.68
2018-12-18T01:23:02.438Z,2.75
2018-12-18T01:24:02.776Z,2.75
2018-12-18T01:25:03.129Z,2.68
2018-12-18T01:26:02.431Z,2.62
2018-12-18T01:27:02.673Z,2.68
2018-12-18T01:28:02.994Z,2.68
2018-12-18T01:29:02.323Z,2.68
2018-12-18T01:30:02.648Z,2.68
2018-12-18T01:31:02.973Z,2.62
2018-12-18T01:32:02.282Z,2.62
2018-12-18T01:33:02.607Z,2.68
2018-12-18T01:34:02.921Z,2.75
2018-12-18T01:35:03.329Z,2.68
2018-12-18T01:36:02.695Z,2.75
2018-12-18T01:37:03.001Z,2.75
2018-12-18T01:38:02.282Z,2.81
2018-12-18T01:39:02.597Z,2.75
2018-12-18T01:40:02.918Z,2.81
2018-12-18T01:41:03.240Z,2.68
2018-12-18T01:42:02.612Z,2.68
2018-12-18T01:43:02.915Z,2.68
2018-12-18T01:44:03.249Z,2.62
2018-12-18T01:45:02.526Z,2.56
2018-12-18T01:46:02.883Z,2.5
2018-12-18T01:47:03.274Z,2.5
2018-12-18T01:48:02.594Z,2.56
2018-12-18T01:49:02.918Z,2.43
2018-12-18T01:50:03.241Z,2.5
2018-12-18T01:51:02.515Z,2.5
2018-12-18T01:52:02.841Z,2.5
2018-12-18T01:53:03.221Z,2.5
2018-12-18T01:54:02.517Z,2.43
2018-12-18T01:55:02.835Z,2.43
2018-12-18T01:56:03.159Z,2.43
2018-12-18T01:57:02.424Z,2.43
2018-12-18T01:58:02.679Z,2.5
2018-12-18T01:59:03.086Z,2.56
2018-12-18T02:00:02.355Z,2.5
2018-12-18T02:01:02.731Z,2.5
2018-12-18T02:02:03.005Z,2.5
2018-12-18T02:03:02.285Z,2.43
2018-12-18T02:04:06.017Z,2.43
2018-12-18T02:05:02.505Z,2.43
2018-12-18T02:06:02.830Z,2.43
2018-12-18T02:07:03.091Z,2.43
2018-12-18T02:08:02.502Z,2.43
2018-12-18T02:09:03.019Z,2.43
2018-12-18T02:10:02.485Z,2.43
2018-12-18T02:11:02.826Z,2.43
2018-12-18T02:12:03.256Z,2.37
2018-12-18T02:13:02.678Z,2.43
2018-12-18T02:14:03.092Z,2.43
2018-12-18T02:15:02.353Z,2.43
2018-12-18T02:16:02.652Z,2.43
2018-12-18T02:17:02.924Z,2.43
2018-12-18T02:18:03.224Z,2.43
2018-12-18T02:19:02.533Z,2.5
2018-12-18T02:20:02.888Z,2.43
2018-12-18T02:21:03.165Z,2.43
2018-12-18T02:22:02.446Z,2.37
2018-12-18T02:23:02.780Z,2.37
2018-12-18T02:24:03.088Z,2.43
2018-12-18T02:25:02.447Z,2.43
2018-12-18T02:26:02.777Z,2.43
2018-12-18T02:27:03.093Z,2.43
2018-12-18T02:28:02.352Z,2.43
2018-12-18T02:29:02.598Z,2.5
2018-12-18T02:30:02.974Z,2.43
2018-12-18T02:31:02.286Z,2.43
2018-12-18T02:32:02.650Z,2.5
2018-12-18T02:33:02.920Z,2.5
2018-12-18T02:34:03.251Z,2.5
2018-12-18T02:35:03.489Z,2.56
2018-12-18T02:36:02.765Z,2.56
2018-12-18T02:37:03.082Z,2.62
2018-12-18T02:38:02.365Z,2.62
2018-12-18T02:39:02.690Z,2.43
2018-12-18T02:40:03.004Z,2.5
2018-12-18T02:41:02.346Z,2.43
2018-12-18T02:42:02.686Z,2.5
2018-12-18T02:43:02.985Z,2.56
2018-12-18T02:44:02.279Z,2.56
2018-12-18T02:45:02.588Z,2.56
2018-12-18T02:46:02.882Z,2.43
2018-12-18T02:47:03.202Z,2.5
2018-12-18T02:48:02.534Z,2.43
2018-12-18T02:49:02.836Z,2.43
2018-12-18T02:50:03.148Z,2.43
2018-12-18T02:51:02.451Z,2.37
2018-12-18T02:52:02.809Z,2.56
2018-12-18T02:53:03.089Z,2.5
2018-12-18T02:54:02.349Z,2.5
2018-12-18T02:55:02.589Z,2.43
2018-12-18T02:56:02.922Z,2.43
2018-12-18T02:57:03.240Z,2.43
2018-12-18T02:58:02.648Z,2.43
2018-12-18T02:59:02.923Z,2.43
2018-12-18T03:00:03.225Z,2.43
2018-12-18T03:01:02.525Z,2.37
2018-12-18T03:02:02.898Z,2.43
2018-12-18T03:03:03.163Z,2.43
2018-12-18T03:04:02.561Z,2.37
2018-12-18T03:05:02.838Z,2.43
2018-12-18T03:06:03.157Z,2.5
2018-12-18T03:07:02.454Z,2.37
2018-12-18T03:08:02.758Z,2.37
2018-12-18T03:09:03.160Z,2.43
2018-12-18T03:10:02.426Z,2.43
2018-12-18T03:11:02.685Z,2.37
2018-12-18T03:12:03.000Z,2.43
2018-12-18T03:13:02.288Z,2.37
2018-12-18T03:14:02.597Z,2.43
2018-12-18T03:15:02.966Z,2.37
2018-12-18T03:16:02.297Z,2.37
2018-12-18T03:17:02.665Z,2.37
2018-12-18T03:18:03.055Z,2.43
2018-12-18T03:19:02.342Z,2.37
2018-12-18T03:20:02.648Z,2.37
2018-12-18T03:21:04.775Z,2.37
2018-12-18T03:22:03.100Z,2.37
2018-12-18T03:23:02.359Z,2.37
2018-12-18T03:24:02.682Z,2.37
2018-12-18T03:25:03.004Z,2.31
2018-12-18T03:26:02.272Z,2.37
2018-12-18T03:27:02.606Z,2.37
2018-12-18T03:28:02.911Z,2.31
2018-12-18T03:29:03.236Z,2.37
2018-12-18T03:30:02.523Z,2.43
2018-12-18T03:31:02.843Z,2.43
2018-12-18T03:32:03.199Z,2.43
2018-12-18T03:33:02.512Z,2.5
2018-12-18T03:34:02.838Z,2.43
2018-12-18T03:35:03.326Z,2.37
2018-12-18T03:36:02.601Z,2.43
2018-12-18T03:37:02.928Z,2.43
2018-12-18T03:38:03.329Z,2.43
2018-12-18T03:39:02.594Z,2.43
2018-12-18T03:40:02.923Z,2.31
2018-12-18T03:41:03.242Z,2.31
2018-12-18T03:42:02.510Z,2.31
2018-12-18T03:43:02.767Z,2.43
2018-12-18T03:44:03.133Z,2.5
2018-12-18T03:45:02.428Z,2.5
2018-12-18T03:46:02.698Z,2.5
2018-12-18T03:47:02.986Z,2.37
2018-12-18T03:48:02.324Z,2.31
2018-12-18T03:49:03.534Z,2.31
2018-12-18T03:50:02.831Z,2.31
2018-12-18T03:51:03.213Z,2.37
2018-12-18T03:52:02.531Z,2.37
2018-12-18T03:53:02.835Z,2.31
2018-12-18T03:54:03.174Z,2.37
2018-12-18T03:55:02.681Z,2.31
2018-12-18T03:56:02.995Z,2.37
2018-12-18T03:57:02.272Z,2.31
2018-12-18T03:58:02.514Z,2.31
2018-12-18T03:59:02.753Z,2.31
2018-12-18T04:00:03.175Z,2.43
2018-12-18T04:01:02.445Z,2.37
2018-12-18T04:02:02.752Z,2.31
2018-12-18T04:03:03.073Z,2.31
2018-12-18T04:04:02.371Z,2.31
2018-12-18T04:05:02.689Z,2.37
2018-12-18T04:06:03.050Z,2.31
2018-12-18T04:07:02.358Z,2.37
2018-12-18T04:08:02.698Z,2.31
2018-12-18T04:09:02.990Z,2.37
2018-12-18T04:10:02.356Z,2.37
2018-12-18T04:11:02.679Z,2.43
2018-12-18T04:12:03.078Z,2.43
2018-12-18T04:13:02.372Z,2.43
2018-12-18T04:14:02.681Z,2.43
2018-12-18T04:15:02.996Z,2.5
2018-12-18T04:16:02.277Z,2.5
2018-12-18T04:17:02.603Z,2.43
2018-12-18T04:18:02.969Z,2.43
2018-12-18T04:19:02.283Z,2.43
2018-12-18T04:20:02.597Z,2.5
2018-12-18T04:21:02.983Z,2.43
2018-12-18T04:22:02.330Z,2.43
2018-12-18T04:23:02.606Z,2.56
2018-12-18T04:24:02.980Z,2.56
2018-12-18T04:25:02.280Z,2.5
2018-12-18T04:26:02.603Z,2.43
2018-12-18T04:27:02.912Z,2.43
2018-12-18T04:28:03.250Z,2.43
2018-12-18T04:29:02.532Z,2.5
2018-12-18T04:30:02.890Z,2.5
2018-12-18T04:31:03.165Z,2.56
2018-12-18T04:32:02.426Z,2.5
2018-12-18T04:33:02.751Z,2.43
2018-12-18T04:34:03.077Z,2.37
2018-12-18T04:35:02.371Z,2.37
2018-12-18T04:36:02.705Z,2.43
2018-12-18T04:37:03.045Z,2.37
2018-12-18T04:38:02.371Z,2.43
2018-12-18T04:39:02.685Z,2.43
2018-12-18T04:40:03.008Z,2.43
2018-12-18T04:41:02.331Z,2.31
2018-12-18T04:42:02.598Z,2.31
2018-12-18T04:43:02.957Z,2.37
2018-12-18T04:44:02.270Z,2.31
2018-12-18T04:45:02.532Z,2.31
2018-12-18T04:46:02.858Z,2.37
2018-12-18T04:47:03.224Z,2.37
2018-12-18T04:48:02.540Z,2.31
2018-12-18T04:49:02.837Z,2.31
2018-12-18T04:50:03.161Z,2.31
2018-12-18T04:51:02.456Z,2.31
2018-12-18T04:52:02.814Z,2.31
2018-12-18T04:53:03.122Z,2.31
2018-12-18T04:54:02.477Z,2.31
2018-12-18T04:55:02.765Z,2.37
2018-12-18T04:56:03.077Z,2.31
2018-12-18T04:57:02.367Z,2.31
2018-12-18T04:58:02.744Z,2.31
2018-12-18T04:59:02.997Z,2.31
2018-12-18T05:00:02.282Z,2.31
2018-12-18T05:01:02.600Z,2.37
2018-12-18T05:02:02.918Z,2.43
2018-12-18T05:03:03.241Z,2.5
2018-12-18T05:04:03.911Z,2.43
2018-12-18T05:05:02.355Z,2.5
2018-12-18T05:06:02.699Z,2.5
2018-12-18T05:07:03.019Z,2.37
2018-12-18T05:08:02.330Z,2.37
2018-12-18T05:09:02.666Z,2.5
2018-12-18T05:10:02.933Z,2.43
2018-12-18T05:11:03.248Z,2.37
2018-12-18T05:12:02.523Z,2.37
2018-12-18T05:13:02.832Z,2.37
2018-12-18T05:14:03.097Z,2.43
2018-12-18T05:15:02.421Z,2.43
2018-12-18T05:16:02.689Z,2.43
2018-12-18T05:17:02.995Z,2.43
2018-12-18T05:18:02.275Z,2.5
2018-12-18T05:19:02.607Z,2.5
2018-12-18T05:20:02.947Z,2.5
2018-12-18T05:21:03.403Z,2.56
2018-12-18T05:22:02.667Z,2.43
2018-12-18T05:23:02.971Z,2.43
2018-12-18T05:24:02.296Z,2.56
2018-12-18T05:25:02.582Z,2.56
2018-12-18T05:26:03.010Z,2.56
2018-12-18T05:27:02.329Z,2.62
2018-12-18T05:28:02.604Z,2.56
2018-12-18T05:29:02.922Z,2.68
2018-12-18T05:30:03.236Z,2.68
2018-12-18T05:31:02.535Z,2.75
2018-12-18T05:32:02.864Z,2.56
2018-12-18T05:33:03.270Z,2.75
2018-12-18T05:34:02.601Z,2.75
2018-12-18T05:35:02.914Z,2.81
2018-12-18T05:36:03.247Z,2.81
2018-12-18T05:37:02.514Z,2.81
2018-12-18T05:38:02.945Z,2.87
2018-12-18T05:39:02.382Z,2.81
2018-12-18T05:40:02.688Z,2.81
2018-12-18T05:41:03.009Z,2.87
2018-12-18T05:42:02.279Z,2.93
2018-12-18T05:43:02.604Z,2.87
2018-12-18T05:44:03.013Z,2.93
2018-12-18T05:45:02.278Z,2.93
2018-12-18T05:46:02.608Z,2.93
2018-12-18T05:47:02.941Z,3
2018-12-18T05:48:03.239Z,3
2018-12-18T05:49:02.522Z,2.87
2018-12-18T05:50:02.931Z,2.81
2018-12-18T05:51:03.231Z,2.93
2018-12-18T05:52:02.522Z,2.93
2018-12-18T05:53:02.854Z,2.93
2018-12-18T05:54:03.211Z,2.93
2018-12-18T05:55:02.520Z,3.06
2018-12-18T05:56:02.900Z,2.93
2018-12-18T05:57:03.170Z,2.93
2018-12-18T05:58:02.440Z,3
2018-12-18T05:59:02.761Z,3.06
2018-12-18T06:00:03.090Z,3
2018-12-18T06:01:03.012Z,3.06
2018-12-18T06:02:02.328Z,3
2018-12-18T06:03:02.600Z,3
2018-12-18T06:04:02.937Z,3.06
2018-12-18T06:05:03.491Z,3
2018-12-18T06:06:02.927Z,3.06
2018-12-18T06:07:03.328Z,3.06
2018-12-18T06:08:02.604Z,3.06
2018-12-18T06:09:02.927Z,3
2018-12-18T06:10:03.330Z,3
2018-12-18T06:11:02.592Z,3
2018-12-18T06:12:02.848Z,2.87
2018-12-18T06:13:03.258Z,2.87
2018-12-18T06:14:02.523Z,2.93
2018-12-18T06:15:02.836Z,2.81
2018-12-18T06:16:03.159Z,2.75
2018-12-18T06:17:02.431Z,2.81
2018-12-18T06:18:02.807Z,2.87
2018-12-18T06:19:04.827Z,2.81
2018-12-18T06:20:03.097Z,2.81
2018-12-18T06:21:02.351Z,2.93
2018-12-18T06:22:02.602Z,2.87
2018-12-18T06:23:03.000Z,2.93
2018-12-18T06:24:02.277Z,3
2018-12-18T06:25:02.551Z,3
2018-12-18T06:26:02.929Z,3.06
2018-12-18T06:27:03.233Z,2.93
2018-12-18T06:28:02.568Z,2.93
2018-12-18T06:29:03.714Z,3.06
2018-12-18T06:30:02.995Z,3.06
2018-12-18T06:31:02.297Z,2.93
2018-12-18T06:32:02.601Z,2.87
2018-12-18T06:33:03.007Z,2.75
2018-12-18T06:34:02.277Z,2.75
2018-12-18T06:35:02.631Z,2.75
2018-12-18T06:36:03.803Z,2.87
2018-12-18T06:37:03.070Z,2.87
2018-12-18T06:38:02.367Z,2.93
2018-12-18T06:39:02.763Z,2.93
2018-12-18T06:40:03.088Z,2.93
2018-12-18T06:41:02.437Z,2.93
2018-12-18T06:42:02.680Z,2.93
2018-12-18T06:43:02.994Z,3
2018-12-18T06:44:02.365Z,2.93
2018-12-18T06:45:02.680Z,2.87
2018-12-18T06:46:03.876Z,2.81
2018-12-18T06:47:03.149Z,2.75
2018-12-18T06:48:02.445Z,2.75
2018-12-18T06:49:02.838Z,2.75
2018-12-18T06:50:03.179Z,2.75
2018-12-18T06:51:02.438Z,2.68
2018-12-18T06:52:02.756Z,2.68
2018-12-18T06:53:03.074Z,2.68
2018-12-18T06:54:02.406Z,2.68
2018-12-18T06:55:02.727Z,2.68
2018-12-18T06:56:03.058Z,2.75
2018-12-18T06:57:02.347Z,2.68
2018-12-18T06:58:02.607Z,2.68
2018-12-18T06:59:02.916Z,2.68
2018-12-18T07:00:03.247Z,2.68
2018-12-18T07:01:02.605Z,2.68
2018-12-18T07:02:02.934Z,2.68
2018-12-18T07:03:03.230Z,2.68
2018-12-18T07:04:02.531Z,2.68
2018-12-18T07:05:02.831Z,2.62
2018-12-18T07:06:03.134Z,2.68
2018-12-18T07:07:02.447Z,2.68
2018-12-18T07:08:02.762Z,2.68
2018-12-18T07:09:03.080Z,2.68
2018-12-18T07:10:02.362Z,2.68
2018-12-18T07:11:03.605Z,2.62
2018-12-18T07:12:02.968Z,2.68
2018-12-18T07:13:02.294Z,2.62
2018-12-18T07:14:02.596Z,2.62
2018-12-18T07:15:02.917Z,2.68
2018-12-18T07:16:03.233Z,2.75
2018-12-18T07:17:02.571Z,2.68
2018-12-18T07:18:02.862Z,2.75
2018-12-18T07:19:03.178Z,2.68
2018-12-18T07:20:02.445Z,2.62
2018-12-18T07:21:02.770Z,2.75
2018-12-18T07:22:03.091Z,2.75
2018-12-18T07:23:02.412Z,2.75
2018-12-18T07:24:02.690Z,2.68
2018-12-18T07:25:04.761Z,2.68
2018-12-18T07:26:03.952Z,2.68
2018-12-18T07:27:03.306Z,2.68
2018-12-18T07:28:02.618Z,2.68
2018-12-18T07:29:02.972Z,2.62
2018-12-18T07:30:02.279Z,2.62
2018-12-18T07:31:02.590Z,2.62
2018-12-18T07:32:02.831Z,2.68
2018-12-18T07:33:03.102Z,2.68
2018-12-18T07:34:03.748Z,2.68
2018-12-18T07:35:03.091Z,2.68
2018-12-18T07:36:02.352Z,2.62
2018-12-18T07:37:02.689Z,2.68
2018-12-18T07:38:02.993Z,2.68
2018-12-18T07:39:02.303Z,2.62
2018-12-18T07:40:02.686Z,2.62
2018-12-18T07:41:02.999Z,2.68
2018-12-18T07:42:02.275Z,2.68
2018-12-18T07:43:02.679Z,2.81
2018-12-18T07:44:03.003Z,2.81
2018-12-18T07:45:02.326Z,2.87
2018-12-18T07:46:02.666Z,2.87
2018-12-18T07:47:02.937Z,2.87
2018-12-18T07:48:03.275Z,2.75
2018-12-18T07:49:02.499Z,2.75
2018-12-18T07:50:02.768Z,2.87
2018-12-18T07:51:03.162Z,2.93
2018-12-18T07:52:02.447Z,2.87
2018-12-18T07:53:02.769Z,2.93
2018-12-18T07:54:03.074Z,2.87
2018-12-18T07:55:02.358Z,2.87
2018-12-18T07:56:02.737Z,2.87
2018-12-18T07:57:03.054Z,2.81
2018-12-18T07:58:02.447Z,2.87
2018-12-18T07:59:02.752Z,2.93
2018-12-18T08:00:03.075Z,2.93
2018-12-18T08:01:02.352Z,2.87
2018-12-18T08:02:02.689Z,2.81
2018-12-18T08:03:03.049Z,2.87
2018-12-18T08:04:02.352Z,2.87
2018-12-18T08:05:02.698Z,2.93
2018-12-18T08:06:02.999Z,2.93
2018-12-18T08:07:02.268Z,2.93
2018-12-18T08:08:02.524Z,2.93
2018-12-18T08:09:02.957Z,2.93
2018-12-18T08:10:03.239Z,2.93
2018-12-18T08:11:02.515Z,2.93
2018-12-18T08:12:02.857Z,3
2018-12-18T08:13:03.224Z,2.93
2018-12-18T08:14:02.531Z,2.93
2018-12-18T08:15:02.898Z,3
2018-12-18T08:16:03.156Z,2.93
2018-12-18T08:17:02.445Z,2.93
2018-12-18T08:18:02.774Z,2.93
2018-12-18T08:19:03.087Z,2.93
2018-12-18T08:20:02.365Z,2.93
2018-12-18T08:21:02.731Z,2.87
2018-12-18T08:22:02.992Z,2.87
2018-12-18T08:23:03.158Z,2.87
2018-12-18T08:24:02.502Z,2.93
2018-12-18T08:25:02.845Z,2.93
2018-12-18T08:26:03.175Z,2.93
2018-12-18T08:27:02.489Z,2.93
2018-12-18T08:28:02.813Z,2.93
2018-12-18T08:29:03.171Z,2.93
2018-12-18T08:30:02.441Z,2.93
2018-12-18T08:31:02.763Z,2.93
2018-12-18T08:32:03.148Z,3
2018-12-18T08:33:02.493Z,3
2018-12-18T08:34:02.776Z,3
2018-12-18T08:35:03.073Z,3
2018-12-18T08:36:02.368Z,2.93
2018-12-18T08:37:02.672Z,3
2018-12-18T08:38:03.024Z,3
2018-12-18T08:39:02.369Z,3
2018-12-18T08:40:02.682Z,3
2018-12-18T08:41:02.995Z,3.06
2018-12-18T08:42:02.277Z,3.06
2018-12-18T08:43:03.650Z,3.25
2018-12-18T08:44:03.930Z,3.31
2018-12-18T08:45:03.290Z,3.25
2018-12-18T08:46:02.604Z,3.25
2018-12-18T08:47:02.936Z,3.31
2018-12-18T08:48:03.257Z,3.31
2018-12-18T08:49:02.581Z,3.25
2018-12-18T08:50:02.845Z,3.18
2018-12-18T08:51:03.161Z,3.18
2018-12-18T08:52:02.432Z,3.18
2018-12-18T08:53:02.672Z,3.12
2018-12-18T08:54:02.936Z,3.18
2018-12-18T08:55:03.323Z,3.25
2018-12-18T08:56:02.598Z,3.31
2018-12-18T08:57:02.917Z,3.25
2018-12-18T08:58:03.156Z,3.25
2018-12-18T08:59:03.321Z,3.18
2018-12-18T09:00:02.697Z,3.18
2018-12-18T09:01:03.052Z,3.18
2018-12-18T09:02:02.347Z,3.25
2018-12-18T09:03:02.671Z,3.25
2018-12-18T09:04:02.999Z,3.37
2018-12-18T09:05:02.285Z,3.37
2018-12-18T09:06:02.603Z,3.37
2018-12-18T09:07:03.007Z,3.37
2018-12-18T09:08:02.340Z,3.43
2018-12-18T09:09:02.591Z,3.37
2018-12-18T09:10:02.915Z,3.43
2018-12-18T09:11:03.231Z,3.37
2018-12-18T09:12:02.580Z,3.37
2018-12-18T09:13:02.851Z,3.37
2018-12-18T09:14:03.215Z,3.37
2018-12-18T09:15:02.524Z,3.37
2018-12-18T09:16:02.926Z,3.37
2018-12-18T09:17:03.302Z,3.43
2018-12-18T09:18:02.595Z,3.43
2018-12-18T09:19:02.932Z,3.43
2018-12-18T09:20:03.226Z,3.5
2018-12-18T09:21:02.540Z,3.5
2018-12-18T09:22:02.850Z,3.56
2018-12-18T09:23:03.221Z,3.5
2018-12-18T09:24:02.529Z,3.56
2018-12-18T09:25:02.846Z,3.5
2018-12-18T09:26:03.152Z,3.43
2018-12-18T09:27:02.457Z,3.43
2018-12-18T09:28:02.764Z,3.43
2018-12-18T09:29:03.195Z,3.43
2018-12-18T09:30:02.511Z,3.37
2018-12-18T09:31:02.893Z,3.43
2018-12-18T09:32:03.161Z,3.43
2018-12-18T09:33:02.437Z,3.5
2018-12-18T09:34:02.769Z,3.43
2018-12-18T09:35:03.177Z,3.43
2018-12-18T09:36:02.446Z,3.5
2018-12-18T09:37:02.749Z,3.5
2018-12-18T09:38:03.081Z,3.5
2018-12-18T09:39:02.369Z,3.56
2018-12-18T09:40:02.701Z,3.56
2018-12-18T09:41:03.052Z,3.56
2018-12-18T09:42:02.362Z,3.62
2018-12-18T09:43:02.676Z,3.56
2018-12-18T09:44:03.003Z,3.62
2018-12-18T09:45:02.296Z,3.68
2018-12-18T09:46:02.602Z,3.56
2018-12-18T09:47:02.973Z,3.56
2018-12-18T09:48:02.284Z,3.5
2018-12-18T09:49:02.625Z,3.56
2018-12-18T09:50:02.913Z,3.56
2018-12-18T09:51:03.232Z,3.56
2018-12-18T09:52:02.553Z,3.5
2018-12-18T09:53:02.898Z,3.5
2018-12-18T09:54:03.159Z,3.56
2018-12-18T09:55:02.445Z,3.56
2018-12-18T09:56:02.765Z,3.62
2018-12-18T09:57:03.088Z,3.68
2018-12-18T09:58:02.366Z,3.75
2018-12-18T09:59:02.745Z,3.75
2018-12-18T10:00:03.004Z,3.75
2018-12-18T10:01:02.287Z,3.87
2018-12-18T10:02:02.650Z,3.87
2018-12-18T10:03:02.934Z,3.81
2018-12-18T10:04:03.339Z,3.87
2018-12-18T10:05:02.600Z,4
2018-12-18T10:06:02.924Z,4
2018-12-18T10:07:03.235Z,3.93
2018-12-18T10:08:02.531Z,4
2018-12-18T10:09:09.419Z,4.06
2018-12-18T10:10:02.968Z,4.06
2018-12-18T10:11:02.263Z,3.93
2018-12-18T10:12:02.525Z,3.93
2018-12-18T10:13:02.839Z,4
2018-12-18T10:14:03.170Z,3.93
2018-12-18T10:15:02.490Z,3.93
2018-12-18T10:16:02.810Z,3.93
2018-12-18T10:17:03.137Z,3.93
2018-12-18T10:18:02.525Z,3.81
2018-12-18T10:19:02.841Z,3.87
2018-12-18T10:20:03.172Z,3.93
2018-12-18T10:21:02.488Z,3.93
2018-12-18T10:22:02.842Z,3.87
2018-12-18T10:23:04.036Z,3.93
2018-12-18T10:24:02.277Z,3.93
2018-12-18T10:25:02.589Z,4
2018-12-18T10:26:02.828Z,3.93
2018-12-18T10:27:03.137Z,3.87
2018-12-18T10:28:02.434Z,3.81
2018-12-18T10:29:02.695Z,3.87
2018-12-18T10:30:03.001Z,3.81
2018-12-18T10:31:02.357Z,3.75
2018-12-18T10:32:02.735Z,3.75
2018-12-18T10:33:03.049Z,3.87
2018-12-18T10:34:02.356Z,3.87
2018-12-18T10:35:02.675Z,3.87
2018-12-18T10:36:03.206Z,3.87
2018-12-18T10:37:02.554Z,3.93
2018-12-18T10:38:02.931Z,3.93
2018-12-18T10:39:03.235Z,3.93
2018-12-18T10:40:02.525Z,3.93
2018-12-18T10:41:02.855Z,3.93
2018-12-18T10:42:03.166Z,3.93
2018-12-18T10:43:02.523Z,4.06
2018-12-18T10:44:02.846Z,4.06
2018-12-18T10:45:03.151Z,4.12
2018-12-18T10:46:02.436Z,4.06
2018-12-18T10:47:02.761Z,4.06
2018-12-18T10:48:03.202Z,4
2018-12-18T10:49:02.514Z,4.06
2018-12-18T10:50:02.852Z,4.18
2018-12-18T10:51:04.927Z,4.18
2018-12-18T10:52:03.233Z,4.12
2018-12-18T10:53:02.532Z,4.12
2018-12-18T10:54:02.887Z,4.06
2018-12-18T10:55:03.161Z,4.18
2018-12-18T10:56:02.435Z,4.25
2018-12-18T10:57:02.761Z,4.12
2018-12-18T10:58:03.074Z,4.12
2018-12-18T10:59:02.421Z,4.12
2018-12-18T11:00:02.703Z,4.06
2018-12-18T11:01:03.003Z,4.12
2018-12-18T11:02:02.300Z,4.12
2018-12-18T11:03:02.605Z,4.25
2018-12-18T11:04:02.987Z,4.25
2018-12-18T11:05:02.280Z,4.12
2018-12-18T11:06:02.592Z,4.12
2018-12-18T11:07:02.852Z,4.18
2018-12-18T11:08:03.155Z,4.18
2018-12-18T11:09:02.447Z,4.18
2018-12-18T11:10:02.862Z,4.18
2018-12-18T11:11:03.163Z,4.18
2018-12-18T11:12:02.432Z,4.31
2018-12-18T11:13:02.679Z,4.31
2018-12-18T11:14:02.995Z,4.31
2018-12-18T11:15:02.335Z,4.31
2018-12-18T11:16:02.720Z,4.31
2018-12-18T11:17:02.998Z,4.37
2018-12-18T11:18:02.274Z,4.37
2018-12-18T11:19:02.648Z,4.31
2018-12-18T11:20:02.974Z,4.37
2018-12-18T11:21:02.327Z,4.43
2018-12-18T11:22:02.649Z,4.37
2018-12-18T11:23:03.803Z,4.37
2018-12-18T11:24:03.073Z,4.37
2018-12-18T11:25:02.352Z,4.43
2018-12-18T11:26:03.550Z,4.43
2018-12-18T11:27:02.836Z,4.43
2018-12-18T11:28:03.246Z,4.5
2018-12-18T11:29:02.531Z,4.5
2018-12-18T11:30:02.835Z,4.56
2018-12-18T11:31:03.161Z,4.56
2018-12-18T11:32:02.428Z,4.5
2018-12-18T11:33:02.762Z,4.56
2018-12-18T11:34:03.202Z,4.5
2018-12-18T11:35:02.531Z,4.5
2018-12-18T11:36:02.964Z,4.5
2018-12-18T11:37:02.274Z,4.56
2018-12-18T11:38:02.611Z,4.56
2018-12-18T11:39:02.970Z,4.56
2018-12-18T11:40:02.332Z,4.56
2018-12-18T11:41:02.602Z,4.56
2018-12-18T11:42:02.930Z,4.43
2018-12-18T11:43:03.239Z,4.5
2018-12-18T11:44:02.529Z,4.56
2018-12-18T11:45:02.897Z,4.56
2018-12-18T11:46:03.247Z,4.43
2018-12-18T11:47:02.523Z,4.43
2018-12-18T11:48:02.862Z,4.56
2018-12-18T11:49:03.177Z,4.5
2018-12-18T11:50:02.451Z,4.43
2018-12-18T11:51:02.753Z,4.31
2018-12-18T11:52:03.092Z,4.31
2018-12-18T11:53:02.356Z,4.31
2018-12-18T11:54:02.679Z,4.31
2018-12-18T11:55:03.001Z,4.43
2018-12-18T11:56:02.304Z,4.31
2018-12-18T11:57:02.652Z,4.43
2018-12-18T11:58:02.921Z,4.37
2018-12-18T11:59:04.994Z,4.43
2018-12-18T12:00:02.291Z,4.37
2018-12-18T12:01:02.600Z,4.37
2018-12-18T12:02:03.854Z,4.37
2018-12-18T12:03:03.156Z,4.25
2018-12-18T12:04:02.439Z,4.37
2018-12-18T12:05:02.752Z,4.31
2018-12-18T12:06:03.085Z,4.25
2018-12-18T12:07:02.413Z,4.43
2018-12-18T12:08:02.727Z,4.43
2018-12-18T12:09:02.989Z,4.37
2018-12-18T12:10:02.332Z,4.31
2018-12-18T12:11:03.483Z,4.31
2018-12-18T12:12:02.772Z,4.25
2018-12-18T12:13:04.048Z,4.31
2018-12-18T12:14:02.358Z,4.37
2018-12-18T12:15:02.685Z,4.31
2018-12-18T12:16:03.008Z,4.31
2018-12-18T12:17:03.162Z,4.43
2018-12-18T12:18:02.466Z,4.5
2018-12-18T12:19:02.817Z,4.5
2018-12-18T12:20:03.083Z,4.5
2018-12-18T12:21:02.353Z,4.5
2018-12-18T12:22:02.676Z,4.56
2018-12-18T12:23:02.986Z,4.56
2018-12-18T12:24:02.377Z,4.56
2018-12-18T12:25:02.677Z,4.56
2018-12-18T12:26:02.973Z,4.43
2018-12-18T12:27:02.282Z,4.43
2018-12-18T12:28:02.594Z,4.43
2018-12-18T12:29:02.930Z,4.5
2018-12-18T12:30:03.239Z,4.37
2018-12-18T12:31:02.527Z,4.25
2018-12-18T12:32:02.883Z,4.37
2018-12-18T12:33:03.151Z,4.25
2018-12-18T12:34:02.498Z,4.25
2018-12-18T12:35:02.850Z,4.25
2018-12-18T12:36:03.161Z,4.18
2018-12-18T12:37:02.445Z,4.18
2018-12-18T12:38:02.757Z,4.31
2018-12-18T12:39:03.086Z,4.31
2018-12-18T12:40:02.449Z,4.25
2018-12-18T12:41:02.810Z,4.25
2018-12-18T12:42:03.075Z,4.25
2018-12-18T12:43:02.351Z,4.25
2018-12-18T12:44:02.598Z,4.37
2018-12-18T12:45:02.938Z,4.31
2018-12-18T12:46:03.292Z,4.37
2018-12-18T12:47:02.653Z,4.31
2018-12-18T12:48:02.941Z,4.37
2018-12-18T12:49:03.230Z,4.37
2018-12-18T12:50:02.509Z,4.5
2018-12-18T12:51:02.838Z,4.5
2018-12-18T12:52:03.219Z,4.43
2018-12-18T12:53:02.521Z,4.43
2018-12-18T12:54:02.841Z,4.5
2018-12-18T12:55:03.170Z,4.5
2018-12-18T12:56:02.467Z,4.37
2018-12-18T12:57:02.813Z,4.37
2018-12-18T12:58:03.135Z,4.37
2018-12-18T12:59:02.454Z,4.37
2018-12-18T13:00:02.779Z,4.43
2018-12-18T13:01:03.125Z,4.43
2018-12-18T13:02:02.437Z,4.43
2018-12-18T13:03:02.820Z,4.5
2018-12-18T13:04:03.072Z,4.5
2018-12-18T13:05:02.400Z,4.5
2018-12-18T13:06:02.686Z,4.43
2018-12-18T13:07:02.995Z,4.37
2018-12-18T13:08:02.341Z,4.37
2018-12-18T13:09:02.648Z,4.37
2018-12-18T13:10:02.906Z,4.37
2018-12-18T13:11:03.177Z,4.5
2018-12-18T13:12:02.572Z,4.56
2018-12-18T13:13:03.087Z,4.5
2018-12-18T13:14:02.360Z,4.43
2018-12-18T13:15:02.733Z,4.43
2018-12-18T13:16:03.014Z,4.5
2018-12-18T13:17:02.331Z,4.5
2018-12-18T13:18:02.596Z,4.5
2018-12-18T13:19:02.937Z,4.43
2018-12-18T13:20:04.210Z,4.56
2018-12-18T13:21:02.520Z,4.5
2018-12-18T13:22:02.838Z,4.62
2018-12-18T13:23:03.155Z,4.56
2018-12-18T13:24:02.443Z,4.43